Airfield :
LOGIN :

Register | Disclaimer

   EN    FR    IT 

 










Legend :    VFR   Marginal VFR   IFR   Intensive IFR   Very Intensive IFR
Visi :
Ceiling :
>= 8 km
>= 3000ft
5 to 8 km
1000 to 3000 ft
1500m to 5 km
500 to 1000 ft
800 to 1500m
200 to 500 ft
< 800m
< 200 ft
Symbols :   Thunderstorms  Fog  Heavy snow  Heavy precipitations  Wind > 20 kt
SIGMETs :     Misc.  Thunderstorms  Icing  Turbulence  Mountain Waves  Volcanic Ashes







- Airport Elevation : 297 ft
- IATA code : UIP
- Download approach charts


LFRQ - Quimper Pluguffan

CURRENT METAR :
  • 192000Z AUTO 28009KT 9999 BKN023 12/10 Q1005 TEMPO SHRA BECMG 27015G25KT

EXPIRED METARs :
  • 191930Z AUTO 27010KT 9999 FEW023 SCT058 BKN140 12/10 Q1005 TEMPO SHRA BECMG 27015G25KT
  • 191900Z AUTO 28011KT 9999 SCT017 SCT033 BKN056 12/11 Q1004 TEMPO SHRA BECMG 27015G25KT
  • 191830Z AUTO 28011KT 9999 FEW018 13/11 Q1004 TEMPO SHRA BECMG 27015G25KT
  • 191800Z AUTO 28012KT 9999 FEW015 SCT020 BKN130 13/11 Q1003 TEMPO SHRA BECMG 27015G25KT
  • 191730Z AUTO 28011KT 9999 SCT016 BKN024 BKN030 14/12 Q1002 TEMPO SHRA BECMG 27015G25KT

TAF TAF LFRQ
Valid from the 19 at 18:00 until the 20 at 03:00 UTC


191700Z 1918/2003 27015G25KT 9999 BKN010 BKN015
BECMG 1918/1919 BKN020
PROB30
TEMPO 1918/1921 SHRA
BECMG 2000/2003 26008KT
No reported NOTAMs for that airfield.
3 SIGMETs reported for the Brest FIR (LFRR) :
 
Severe turbulence
LFRR SIGMET 8 VALID 192000/192300 LFPW
LFRR BREST FIR/UIR SEV TURB FCST WI N4930 W00115 - N4700 W00045 - N4630 W00245 - N4900 W00545 FL180/310 MOV NE 30KT NC=
Severe turbulence
LFRR SIGMET 7 VALID 191900/192300 LFPW
LFRR BREST FIR/UIR SEV TURB OBS WI N4915 W00700 - N5000 W00200 - N5000 W00015 - N4815 W00015 - N4630 W00215 - N4715 W00330 - N4830 W00315 - N4845 W00600 SFC/FL060 MOV NE 30KT NC=
Severe turbulence
LFRR SIGMET 6 VALID 191800/192200 LFPW
LFRR BREST FIR/UIR SEV TURB FCST WI N4545 W00145 - N4330 W00145 - N4400 W00330 - N4630 W00430 - N4645 W00215 FL220/310 MOV E 30KT WKN=



MET'MAP, your aeronautical weather chart ! - Copyright ORBIFLY December 2007 - Disclaimer

ORBIFLY MET'MAP TEAM :

Programming & Development : Alexandra Zaïnal
Concept & Development : Baudouin d'Aumeries
Co-Development & Prog : Marc-Olivier Méhu
Technical & hardware support : Manuel Goepfert

Contact : metmap@orbifly.com




SOURCES & CREDITS :

   NOAA